sensor_id;sensor_type;location;lat;lon;timestamp;P1;durP1;ratioP1;P2;durP2;ratioP2
8252;SDS011;61313;48.396;10.008;2022-12-26T00:00:53;13.53;;;10.63;;
8252;SDS011;61313;48.396;10.008;2022-12-26T00:03:20;12.80;;;9.17;;
8252;SDS011;61313;48.396;10.008;2022-12-26T00:05:45;10.47;;;8.10;;
8252;SDS011;61313;48.396;10.008;2022-12-26T00:08:11;18.53;;;9.93;;
8252;SDS011;61313;48.396;10.008;2022-12-26T00:10:37;15.90;;;10.77;;
8252;SDS011;61313;48.396;10.008;2022-12-26T00:13:02;12.47;;;9.77;;
8252;SDS011;61313;48.396;10.008;2022-12-26T00:15:28;12.77;;;9.80;;
8252;SDS011;61313;48.396;10.008;2022-12-26T00:17:53;10.10;;;8.90;;
8252;SDS011;61313;48.396;10.008;2022-12-26T00:20:19;11.17;;;9.23;;
8252;SDS011;61313;48.396;10.008;2022-12-26T00:22:45;13.60;;;11.20;;
8252;SDS011;61313;48.396;10.008;2022-12-26T00:25:11;16.00;;;10.90;;
8252;SDS011;61313;48.396;10.008;2022-12-26T00:27:37;16.77;;;9.83;;
8252;SDS011;61313;48.396;10.008;2022-12-26T00:30:02;12.77;;;10.13;;
8252;SDS011;61313;48.396;10.008;2022-12-26T00:32:28;15.33;;;9.10;;
8252;SDS011;61313;48.396;10.008;2022-12-26T00:34:54;11.10;;;9.90;;
8252;SDS011;61313;48.396;10.008;2022-12-26T00:37:20;13.37;;;9.40;;
8252;SDS011;61313;48.396;10.008;2022-12-26T00:39:45;15.47;;;10.40;;
8252;SDS011;61313;48.396;10.008;2022-12-26T00:42:11;11.73;;;10.50;;
8252;SDS011;61313;48.396;10.008;2022-12-26T00:44:36;12.10;;;10.50;;
8252;SDS011;61313;48.396;10.008;2022-12-26T00:47:02;13.53;;;10.80;;
8252;SDS011;61313;48.396;10.008;2022-12-26T00:49:28;15.13;;;11.73;;
8252;SDS011;61313;48.396;10.008;2022-12-26T00:51:53;15.10;;;11.33;;
8252;SDS011;61313;48.396;10.008;2022-12-26T00:54:19;16.67;;;11.80;;
8252;SDS011;61313;48.396;10.008;2022-12-26T00:56:45;24.10;;;13.00;;
8252;SDS011;61313;48.396;10.008;2022-12-26T00:59:11;17.33;;;11.53;;
8252;SDS011;61313;48.396;10.008;2022-12-26T01:01:36;17.10;;;12.90;;
8252;SDS011;61313;48.396;10.008;2022-12-26T01:04:02;18.63;;;13.33;;
8252;SDS011;61313;48.396;10.008;2022-12-26T01:06:29;13.07;;;11.40;;
8252;SDS011;61313;48.396;10.008;2022-12-26T01:08:54;16.53;;;11.90;;
8252;SDS011;61313;48.396;10.008;2022-12-26T01:11:20;14.20;;;11.63;;
8252;SDS011;61313;48.396;10.008;2022-12-26T01:14:05;19.90;;;12.10;;
8252;SDS011;61313;48.396;10.008;2022-12-26T01:16:39;15.80;;;10.80;;
8252;SDS011;61313;48.396;10.008;2022-12-26T01:19:09;12.63;;;9.50;;
8252;SDS011;61313;48.396;10.008;2022-12-26T01:21:35;19.50;;;11.13;;
8252;SDS011;61313;48.396;10.008;2022-12-26T01:24:04;12.47;;;10.60;;
8252;SDS011;61313;48.396;10.008;2022-12-26T01:26:30;12.93;;;9.93;;
8252;SDS011;61313;48.396;10.008;2022-12-26T01:28:56;11.03;;;9.60;;
8252;SDS011;61313;48.396;10.008;2022-12-26T01:31:22;14.10;;;11.20;;
8252;SDS011;61313;48.396;10.008;2022-12-26T01:33:48;24.17;;;10.07;;
8252;SDS011;61313;48.396;10.008;2022-12-26T01:36:14;15.07;;;8.80;;
8252;SDS011;61313;48.396;10.008;2022-12-26T01:38:40;11.47;;;9.20;;
8252;SDS011;61313;48.396;10.008;2022-12-26T01:41:06;14.30;;;10.00;;
8252;SDS011;61313;48.396;10.008;2022-12-26T01:43:51;10.17;;;9.17;;
8252;SDS011;61313;48.396;10.008;2022-12-26T01:46:50;15.50;;;10.00;;
8252;SDS011;61313;48.396;10.008;2022-12-26T01:49:12;14.27;;;11.03;;
8252;SDS011;61313;48.396;10.008;2022-12-26T01:51:46;12.53;;;10.80;;
8252;SDS011;61313;48.396;10.008;2022-12-26T01:54:21;15.37;;;10.83;;
8252;SDS011;61313;48.396;10.008;2022-12-26T01:56:47;13.37;;;10.40;;
8252;SDS011;61313;48.396;10.008;2022-12-26T01:59:24;14.40;;;9.83;;
8252;SDS011;61313;48.396;10.008;2022-12-26T02:01:52;14.40;;;9.20;;
8252;SDS011;61313;48.396;10.008;2022-12-26T02:04:19;18.67;;;10.37;;
8252;SDS011;61313;48.396;10.008;2022-12-26T02:07:08;12.03;;;9.20;;
8252;SDS011;61313;48.396;10.008;2022-12-26T02:09:34;10.47;;;9.10;;
8252;SDS011;61313;48.396;10.008;2022-12-26T02:12:03;13.00;;;9.70;;
8252;SDS011;61313;48.396;10.008;2022-12-26T02:14:32;13.17;;;9.90;;
8252;SDS011;61313;48.396;10.008;2022-12-26T02:16:59;15.77;;;10.63;;
8252;SDS011;61313;48.396;10.008;2022-12-26T02:22:19;11.00;;;9.60;;
8252;SDS011;61313;48.396;10.008;2022-12-26T02:30:39;13.30;;;10.63;;
8252;SDS011;61313;48.396;10.008;2022-12-26T02:36:08;11.97;;;9.27;;
8252;SDS011;61313;48.396;10.008;2022-12-26T02:38:54;15.77;;;10.10;;
8252;SDS011;61313;48.396;10.008;2022-12-26T02:47:01;10.83;;;9.20;;
8252;SDS011;61313;48.396;10.008;2022-12-26T02:53:11;14.83;;;9.90;;
8252;SDS011;61313;48.396;10.008;2022-12-26T02:56:12;11.33;;;9.20;;
8252;SDS011;61313;48.396;10.008;2022-12-26T02:59:07;12.37;;;9.30;;
8252;SDS011;61313;48.396;10.008;2022-12-26T03:02:00;12.37;;;9.30;;
8252;SDS011;61313;48.396;10.008;2022-12-26T03:04:47;12.13;;;9.50;;
8252;SDS011;61313;48.396;10.008;2022-12-26T03:07:35;10.53;;;9.23;;
8252;SDS011;61313;48.396;10.008;2022-12-26T03:10:24;16.53;;;9.23;;
8252;SDS011;61313;48.396;10.008;2022-12-26T03:13:25;12.77;;;9.13;;
8252;SDS011;61313;48.396;10.008;2022-12-26T03:18:48;11.20;;;9.20;;
8252;SDS011;61313;48.396;10.008;2022-12-26T03:21:20;13.13;;;9.20;;
8252;SDS011;61313;48.396;10.008;2022-12-26T03:23:50;25.50;;;10.07;;
8252;SDS011;61313;48.396;10.008;2022-12-26T03:26:23;26.90;;;9.83;;
8252;SDS011;61313;48.396;10.008;2022-12-26T03:29:11;14.87;;;9.20;;
8252;SDS011;61313;48.396;10.008;2022-12-26T03:31:59;15.13;;;10.27;;
8252;SDS011;61313;48.396;10.008;2022-12-26T03:34:26;10.10;;;8.50;;
8252;SDS011;61313;48.396;10.008;2022-12-26T03:37:00;11.50;;;8.60;;
8252;SDS011;61313;48.396;10.008;2022-12-26T03:52:14;7.43;;;6.70;;
8252;SDS011;61313;48.396;10.008;2022-12-26T04:01:06;8.60;;;6.13;;
8252;SDS011;61313;48.396;10.008;2022-12-26T04:03:54;8.70;;;6.60;;
8252;SDS011;61313;48.396;10.008;2022-12-26T04:06:45;8.20;;;6.53;;
8252;SDS011;61313;48.396;10.008;2022-12-26T04:09:35;8.60;;;7.40;;
8252;SDS011;61313;48.396;10.008;2022-12-26T04:12:25;9.33;;;6.93;;
8252;SDS011;61313;48.396;10.008;2022-12-26T04:15:15;8.90;;;6.73;;
8252;SDS011;61313;48.396;10.008;2022-12-26T04:18:26;9.70;;;6.90;;
8252;SDS011;61313;48.396;10.008;2022-12-26T04:21:39;8.10;;;6.60;;
8252;SDS011;61313;48.396;10.008;2022-12-26T04:24:37;8.57;;;6.07;;
8252;SDS011;61313;48.396;10.008;2022-12-26T04:27:26;8.73;;;6.47;;
8252;SDS011;61313;48.396;10.008;2022-12-26T04:30:13;8.53;;;6.60;;
8252;SDS011;61313;48.396;10.008;2022-12-26T04:33:00;7.07;;;6.37;;
8252;SDS011;61313;48.396;10.008;2022-12-26T04:35:52;8.57;;;6.80;;
8252;SDS011;61313;48.396;10.008;2022-12-26T04:38:43;10.40;;;6.73;;
8252;SDS011;61313;48.396;10.008;2022-12-26T04:41:35;12.53;;;6.83;;
8252;SDS011;61313;48.396;10.008;2022-12-26T04:44:21;8.80;;;7.10;;
8252;SDS011;61313;48.396;10.008;2022-12-26T04:46:50;7.70;;;6.83;;
8252;SDS011;61313;48.396;10.008;2022-12-26T04:49:18;7.90;;;6.40;;
8252;SDS011;61313;48.396;10.008;2022-12-26T04:52:06;12.10;;;7.47;;
8252;SDS011;61313;48.396;10.008;2022-12-26T04:54:35;11.40;;;6.13;;
8252;SDS011;61313;48.396;10.008;2022-12-26T04:57:01;8.70;;;6.90;;
8252;SDS011;61313;48.396;10.008;2022-12-26T04:59:27;8.83;;;8.00;;
8252;SDS011;61313;48.396;10.008;2022-12-26T05:01:53;8.67;;;7.30;;
8252;SDS011;61313;48.396;10.008;2022-12-26T05:04:37;10.23;;;8.30;;
8252;SDS011;61313;48.396;10.008;2022-12-26T05:07:22;7.17;;;6.23;;
8252;SDS011;61313;48.396;10.008;2022-12-26T05:10:19;11.20;;;6.57;;
8252;SDS011;61313;48.396;10.008;2022-12-26T05:12:46;7.20;;;6.33;;
8252;SDS011;61313;48.396;10.008;2022-12-26T05:15:12;10.37;;;6.50;;
8252;SDS011;61313;48.396;10.008;2022-12-26T05:17:39;13.80;;;7.20;;
8252;SDS011;61313;48.396;10.008;2022-12-26T05:20:43;8.10;;;7.20;;
8252;SDS011;61313;48.396;10.008;2022-12-26T05:23:21;12.47;;;6.90;;
8252;SDS011;61313;48.396;10.008;2022-12-26T05:26:10;9.03;;;6.87;;
8252;SDS011;61313;48.396;10.008;2022-12-26T05:29:02;14.77;;;8.30;;
8252;SDS011;61313;48.396;10.008;2022-12-26T05:31:28;12.60;;;7.00;;
8252;SDS011;61313;48.396;10.008;2022-12-26T05:33:54;7.70;;;6.60;;
8252;SDS011;61313;48.396;10.008;2022-12-26T05:36:34;10.00;;;6.83;;
8252;SDS011;61313;48.396;10.008;2022-12-26T05:39:03;6.80;;;5.90;;
8252;SDS011;61313;48.396;10.008;2022-12-26T05:41:29;8.17;;;7.30;;
8252;SDS011;61313;48.396;10.008;2022-12-26T05:43:55;10.60;;;7.73;;
8252;SDS011;61313;48.396;10.008;2022-12-26T05:46:21;10.30;;;8.10;;
8252;SDS011;61313;48.396;10.008;2022-12-26T05:48:46;8.27;;;7.40;;
8252;SDS011;61313;48.396;10.008;2022-12-26T05:51:12;9.00;;;7.30;;
8252;SDS011;61313;48.396;10.008;2022-12-26T05:53:38;10.40;;;7.50;;
8252;SDS011;61313;48.396;10.008;2022-12-26T05:56:05;6.73;;;6.03;;
8252;SDS011;61313;48.396;10.008;2022-12-26T05:58:34;9.73;;;6.50;;
8252;SDS011;61313;48.396;10.008;2022-12-26T06:01:03;7.57;;;6.77;;
8252;SDS011;61313;48.396;10.008;2022-12-26T06:03:30;9.00;;;7.10;;
8252;SDS011;61313;48.396;10.008;2022-12-26T06:05:56;11.90;;;8.40;;
8252;SDS011;61313;48.396;10.008;2022-12-26T06:08:22;10.80;;;6.60;;
8252;SDS011;61313;48.396;10.008;2022-12-26T06:10:48;8.60;;;6.93;;
8252;SDS011;61313;48.396;10.008;2022-12-26T06:13:13;12.00;;;8.23;;
8252;SDS011;61313;48.396;10.008;2022-12-26T06:15:39;9.17;;;7.77;;
8252;SDS011;61313;48.396;10.008;2022-12-26T06:18:05;11.40;;;9.13;;
8252;SDS011;61313;48.396;10.008;2022-12-26T06:20:30;9.10;;;7.40;;
8252;SDS011;61313;48.396;10.008;2022-12-26T06:22:56;12.53;;;8.80;;
8252;SDS011;61313;48.396;10.008;2022-12-26T06:25:22;16.97;;;8.97;;
8252;SDS011;61313;48.396;10.008;2022-12-26T06:27:48;16.40;;;7.87;;
8252;SDS011;61313;48.396;10.008;2022-12-26T06:30:13;13.47;;;9.57;;
8252;SDS011;61313;48.396;10.008;2022-12-26T06:32:39;13.00;;;9.70;;
8252;SDS011;61313;48.396;10.008;2022-12-26T06:35:05;9.93;;;8.83;;
8252;SDS011;61313;48.396;10.008;2022-12-26T06:37:31;23.40;;;9.87;;
8252;SDS011;61313;48.396;10.008;2022-12-26T06:39:57;19.73;;;9.80;;
8252;SDS011;61313;48.396;10.008;2022-12-26T06:42:23;14.50;;;8.67;;
8252;SDS011;61313;48.396;10.008;2022-12-26T06:44:49;12.03;;;8.73;;
8252;SDS011;61313;48.396;10.008;2022-12-26T06:47:14;11.80;;;9.17;;
8252;SDS011;61313;48.396;10.008;2022-12-26T06:49:40;16.50;;;9.90;;
8252;SDS011;61313;48.396;10.008;2022-12-26T06:52:06;15.93;;;9.07;;
8252;SDS011;61313;48.396;10.008;2022-12-26T06:54:32;17.97;;;9.00;;
8252;SDS011;61313;48.396;10.008;2022-12-26T06:56:59;18.17;;;9.47;;
8252;SDS011;61313;48.396;10.008;2022-12-26T06:59:24;26.23;;;10.03;;
8252;SDS011;61313;48.396;10.008;2022-12-26T07:01:50;15.40;;;9.80;;
8252;SDS011;61313;48.396;10.008;2022-12-26T07:04:16;38.63;;;14.77;;
8252;SDS011;61313;48.396;10.008;2022-12-26T07:06:41;29.63;;;10.20;;
8252;SDS011;61313;48.396;10.008;2022-12-26T07:09:09;29.90;;;10.10;;
8252;SDS011;61313;48.396;10.008;2022-12-26T07:11:42;37.63;;;10.37;;
8252;SDS011;61313;48.396;10.008;2022-12-26T07:14:10;14.60;;;9.17;;
8252;SDS011;61313;48.396;10.008;2022-12-26T07:16:36;16.17;;;9.87;;
8252;SDS011;61313;48.396;10.008;2022-12-26T07:19:03;24.00;;;9.67;;
8252;SDS011;61313;48.396;10.008;2022-12-26T07:21:29;9.90;;;8.60;;
8252;SDS011;61313;48.396;10.008;2022-12-26T07:23:55;9.13;;;7.27;;
8252;SDS011;61313;48.396;10.008;2022-12-26T07:26:22;10.43;;;8.07;;
8252;SDS011;61313;48.396;10.008;2022-12-26T07:28:51;12.33;;;8.17;;
8252;SDS011;61313;48.396;10.008;2022-12-26T07:31:19;12.00;;;9.47;;
8252;SDS011;61313;48.396;10.008;2022-12-26T07:33:51;11.73;;;8.67;;
8252;SDS011;61313;48.396;10.008;2022-12-26T07:36:18;15.00;;;8.13;;
8252;SDS011;61313;48.396;10.008;2022-12-26T07:38:45;19.87;;;9.73;;
8252;SDS011;61313;48.396;10.008;2022-12-26T07:41:11;74.57;;;17.63;;
8252;SDS011;61313;48.396;10.008;2022-12-26T07:43:56;18.07;;;10.83;;
8252;SDS011;61313;48.396;10.008;2022-12-26T07:46:21;19.33;;;9.47;;
8252;SDS011;61313;48.396;10.008;2022-12-26T07:48:47;20.83;;;10.60;;
8252;SDS011;61313;48.396;10.008;2022-12-26T07:51:13;31.77;;;11.20;;
8252;SDS011;61313;48.396;10.008;2022-12-26T07:53:39;19.43;;;9.10;;
8252;SDS011;61313;48.396;10.008;2022-12-26T07:56:05;26.70;;;13.83;;
8252;SDS011;61313;48.396;10.008;2022-12-26T07:58:31;33.73;;;11.87;;
8252;SDS011;61313;48.396;10.008;2022-12-26T08:01:00;25.23;;;10.60;;
8252;SDS011;61313;48.396;10.008;2022-12-26T08:03:27;13.57;;;9.10;;
8252;SDS011;61313;48.396;10.008;2022-12-26T08:05:52;18.70;;;9.70;;
8252;SDS011;61313;48.396;10.008;2022-12-26T08:08:18;23.30;;;11.57;;
8252;SDS011;61313;48.396;10.008;2022-12-26T08:10:44;27.13;;;11.20;;
8252;SDS011;61313;48.396;10.008;2022-12-26T08:13:09;15.63;;;9.33;;
8252;SDS011;61313;48.396;10.008;2022-12-26T08:15:38;23.73;;;10.90;;
8252;SDS011;61313;48.396;10.008;2022-12-26T08:18:05;11.63;;;9.47;;
8252;SDS011;61313;48.396;10.008;2022-12-26T08:20:31;13.20;;;8.63;;
8252;SDS011;61313;48.396;10.008;2022-12-26T08:22:57;22.93;;;10.70;;
8252;SDS011;61313;48.396;10.008;2022-12-26T08:25:22;19.37;;;9.33;;
8252;SDS011;61313;48.396;10.008;2022-12-26T08:27:48;35.57;;;10.73;;
8252;SDS011;61313;48.396;10.008;2022-12-26T08:30:14;26.20;;;10.27;;
8252;SDS011;61313;48.396;10.008;2022-12-26T08:32:39;19.73;;;9.50;;
8252;SDS011;61313;48.396;10.008;2022-12-26T08:35:06;42.47;;;12.43;;
8252;SDS011;61313;48.396;10.008;2022-12-26T08:37:32;26.00;;;10.17;;
8252;SDS011;61313;48.396;10.008;2022-12-26T08:39:57;23.03;;;9.57;;
8252;SDS011;61313;48.396;10.008;2022-12-26T08:42:23;41.73;;;13.03;;
8252;SDS011;61313;48.396;10.008;2022-12-26T08:44:49;40.73;;;11.27;;
8252;SDS011;61313;48.396;10.008;2022-12-26T08:47:14;97.63;;;16.90;;
8252;SDS011;61313;48.396;10.008;2022-12-26T08:49:40;38.27;;;12.40;;
8252;SDS011;61313;48.396;10.008;2022-12-26T08:52:06;33.87;;;10.43;;
8252;SDS011;61313;48.396;10.008;2022-12-26T08:54:32;25.00;;;10.77;;
8252;SDS011;61313;48.396;10.008;2022-12-26T08:56:58;31.10;;;11.80;;
8252;SDS011;61313;48.396;10.008;2022-12-26T08:59:23;18.20;;;10.50;;
8252;SDS011;61313;48.396;10.008;2022-12-26T09:01:49;19.10;;;7.97;;
8252;SDS011;61313;48.396;10.008;2022-12-26T09:04:15;52.87;;;12.70;;
8252;SDS011;61313;48.396;10.008;2022-12-26T09:06:41;17.30;;;8.40;;
8252;SDS011;61313;48.396;10.008;2022-12-26T09:09:08;15.47;;;8.47;;
8252;SDS011;61313;48.396;10.008;2022-12-26T09:11:35;13.00;;;8.70;;
8252;SDS011;61313;48.396;10.008;2022-12-26T09:14:02;13.00;;;9.10;;
8252;SDS011;61313;48.396;10.008;2022-12-26T09:16:30;23.00;;;9.00;;
8252;SDS011;61313;48.396;10.008;2022-12-26T09:19:00;12.80;;;8.97;;
8252;SDS011;61313;48.396;10.008;2022-12-26T09:21:27;14.23;;;9.70;;
8252;SDS011;61313;48.396;10.008;2022-12-26T09:23:57;14.07;;;8.80;;
8252;SDS011;61313;48.396;10.008;2022-12-26T09:26:23;34.90;;;10.27;;
8252;SDS011;61313;48.396;10.008;2022-12-26T09:28:49;14.23;;;9.20;;
8252;SDS011;61313;48.396;10.008;2022-12-26T09:31:16;30.33;;;10.47;;
8252;SDS011;61313;48.396;10.008;2022-12-26T09:33:46;17.77;;;10.20;;
8252;SDS011;61313;48.396;10.008;2022-12-26T09:36:13;18.63;;;9.87;;
8252;SDS011;61313;48.396;10.008;2022-12-26T09:38:44;19.37;;;9.00;;
8252;SDS011;61313;48.396;10.008;2022-12-26T09:41:18;36.43;;;10.33;;
8252;SDS011;61313;48.396;10.008;2022-12-26T09:47:19;25.93;;;9.87;;
8252;SDS011;61313;48.396;10.008;2022-12-26T09:52:40;8.43;;;5.23;;
8252;SDS011;61313;48.396;10.008;2022-12-26T09:58:44;36.67;;;12.90;;
8252;SDS011;61313;48.396;10.008;2022-12-26T10:00:54;30.87;;;10.27;;
8252;SDS011;61313;48.396;10.008;2022-12-26T10:03:34;16.40;;;9.40;;
8252;SDS011;61313;48.396;10.008;2022-12-26T10:09:16;20.50;;;10.00;;
8252;SDS011;61313;48.396;10.008;2022-12-26T10:12:04;30.30;;;10.07;;
8252;SDS011;61313;48.396;10.008;2022-12-26T10:14:15;18.80;;;9.40;;
8252;SDS011;61313;48.396;10.008;2022-12-26T10:17:00;20.47;;;10.33;;
8252;SDS011;61313;48.396;10.008;2022-12-26T10:24:52;33.83;;;12.23;;
8252;SDS011;61313;48.396;10.008;2022-12-26T10:27:19;34.83;;;9.53;;
8252;SDS011;61313;48.396;10.008;2022-12-26T10:29:59;20.10;;;10.00;;
8252;SDS011;61313;48.396;10.008;2022-12-26T10:32:33;13.60;;;8.47;;
8252;SDS011;61313;48.396;10.008;2022-12-26T10:37:53;30.77;;;10.47;;
8252;SDS011;61313;48.396;10.008;2022-12-26T10:40:26;76.73;;;17.73;;
8252;SDS011;61313;48.396;10.008;2022-12-26T10:48:48;18.90;;;9.97;;
8252;SDS011;61313;48.396;10.008;2022-12-26T10:51:14;24.30;;;10.07;;
8252;SDS011;61313;48.396;10.008;2022-12-26T10:53:42;11.70;;;8.50;;
8252;SDS011;61313;48.396;10.008;2022-12-26T10:56:12;15.13;;;9.50;;
8252;SDS011;61313;48.396;10.008;2022-12-26T10:58:38;12.73;;;9.60;;
8252;SDS011;61313;48.396;10.008;2022-12-26T11:04:02;12.10;;;9.23;;
8252;SDS011;61313;48.396;10.008;2022-12-26T11:06:35;11.40;;;10.30;;
8252;SDS011;61313;48.396;10.008;2022-12-26T11:09:03;35.50;;;9.90;;
8252;SDS011;61313;48.396;10.008;2022-12-26T11:11:34;17.07;;;10.40;;
8252;SDS011;61313;48.396;10.008;2022-12-26T11:17:24;37.27;;;12.03;;
8252;SDS011;61313;48.396;10.008;2022-12-26T11:22:39;35.47;;;12.93;;
8252;SDS011;61313;48.396;10.008;2022-12-26T11:27:34;24.93;;;11.63;;
8252;SDS011;61313;48.396;10.008;2022-12-26T11:32:43;48.47;;;12.80;;
8252;SDS011;61313;48.396;10.008;2022-12-26T11:35:18;45.33;;;13.67;;
8252;SDS011;61313;48.396;10.008;2022-12-26T11:37:53;55.20;;;14.57;;
8252;SDS011;61313;48.396;10.008;2022-12-26T11:40:30;27.20;;;10.43;;
8252;SDS011;61313;48.396;10.008;2022-12-26T11:43:02;27.20;;;11.40;;
8252;SDS011;61313;48.396;10.008;2022-12-26T11:45:40;27.93;;;10.73;;
8252;SDS011;61313;48.396;10.008;2022-12-26T11:48:17;40.30;;;12.13;;
8252;SDS011;61313;48.396;10.008;2022-12-26T11:50:48;36.87;;;11.30;;
8252;SDS011;61313;48.396;10.008;2022-12-26T11:53:16;31.50;;;11.90;;
8252;SDS011;61313;48.396;10.008;2022-12-26T11:55:43;14.57;;;9.93;;
8252;SDS011;61313;48.396;10.008;2022-12-26T11:58:17;19.10;;;10.53;;
8252;SDS011;61313;48.396;10.008;2022-12-26T12:03:15;15.20;;;11.03;;
8252;SDS011;61313;48.396;10.008;2022-12-26T12:19:19;12.83;;;9.27;;
8252;SDS011;61313;48.396;10.008;2022-12-26T12:22:15;23.10;;;10.10;;
8252;SDS011;61313;48.396;10.008;2022-12-26T12:27:49;28.87;;;11.90;;
8252;SDS011;61313;48.396;10.008;2022-12-26T12:38:34;18.33;;;9.73;;
8252;SDS011;61313;48.396;10.008;2022-12-26T12:41:33;94.23;;;17.60;;
8252;SDS011;61313;48.396;10.008;2022-12-26T12:50:12;28.47;;;10.63;;
8252;SDS011;61313;48.396;10.008;2022-12-26T12:52:44;118.93;;;18.00;;
8252;SDS011;61313;48.396;10.008;2022-12-26T13:08:28;101.97;;;15.57;;
8252;SDS011;61313;48.396;10.008;2022-12-26T13:11:12;65.00;;;9.97;;
8252;SDS011;61313;48.396;10.008;2022-12-26T13:13:48;19.10;;;6.20;;
8252;SDS011;61313;48.396;10.008;2022-12-26T13:16:19;10.87;;;5.27;;
8252;SDS011;61313;48.396;10.008;2022-12-26T13:18:52;5.37;;;4.30;;
8252;SDS011;61313;48.396;10.008;2022-12-26T13:21:22;17.80;;;3.90;;
8252;SDS011;61313;48.396;10.008;2022-12-26T13:26:54;7.53;;;3.93;;
8252;SDS011;61313;48.396;10.008;2022-12-26T13:29:41;4.50;;;3.53;;
8252;SDS011;61313;48.396;10.008;2022-12-26T13:32:27;19.63;;;6.50;;
8252;SDS011;61313;48.396;10.008;2022-12-26T13:34:56;17.67;;;6.17;;
8252;SDS011;61313;48.396;10.008;2022-12-26T13:40:17;32.97;;;7.30;;
8252;SDS011;61313;48.396;10.008;2022-12-26T13:55:53;9.97;;;7.00;;
8252;SDS011;61313;48.396;10.008;2022-12-26T14:12:37;27.70;;;9.13;;
8252;SDS011;61313;48.396;10.008;2022-12-26T14:18:13;25.20;;;8.70;;
8252;SDS011;61313;48.396;10.008;2022-12-26T14:28:49;6.43;;;5.80;;
8252;SDS011;61313;48.396;10.008;2022-12-26T14:31:35;9.17;;;6.40;;
8252;SDS011;61313;48.396;10.008;2022-12-26T14:40:18;10.00;;;6.23;;
8252;SDS011;61313;48.396;10.008;2022-12-26T14:50:43;9.60;;;4.13;;
8252;SDS011;61313;48.396;10.008;2022-12-26T15:00:48;21.13;;;5.37;;
8252;SDS011;61313;48.396;10.008;2022-12-26T15:03:36;31.63;;;6.80;;
8252;SDS011;61313;48.396;10.008;2022-12-26T15:22:41;15.43;;;3.97;;
8252;SDS011;61313;48.396;10.008;2022-12-26T15:28:33;15.73;;;2.80;;
8252;SDS011;61313;48.396;10.008;2022-12-26T15:36:38;34.83;;;5.53;;
8252;SDS011;61313;48.396;10.008;2022-12-26T15:39:18;11.03;;;2.80;;
8252;SDS011;61313;48.396;10.008;2022-12-26T15:51:12;22.27;;;4.93;;
8252;SDS011;61313;48.396;10.008;2022-12-26T16:04:57;11.90;;;2.27;;
8252;SDS011;61313;48.396;10.008;2022-12-26T16:07:41;2.77;;;1.87;;
8252;SDS011;61313;48.396;10.008;2022-12-26T16:15:30;77.10;;;11.70;;
8252;SDS011;61313;48.396;10.008;2022-12-26T16:18:13;52.63;;;7.67;;
8252;SDS011;61313;48.396;10.008;2022-12-26T16:20:40;85.60;;;12.10;;
8252;SDS011;61313;48.396;10.008;2022-12-26T16:23:27;32.80;;;4.77;;
8252;SDS011;61313;48.396;10.008;2022-12-26T16:25:56;25.07;;;5.70;;
8252;SDS011;61313;48.396;10.008;2022-12-26T16:28:38;5.53;;;2.30;;
8252;SDS011;61313;48.396;10.008;2022-12-26T16:31:05;4.33;;;2.10;;
8252;SDS011;61313;48.396;10.008;2022-12-26T16:33:39;20.07;;;4.77;;
8252;SDS011;61313;48.396;10.008;2022-12-26T16:36:07;6.10;;;2.90;;
8252;SDS011;61313;48.396;10.008;2022-12-26T16:38:35;5.30;;;1.90;;
8252;SDS011;61313;48.396;10.008;2022-12-26T16:41:05;9.03;;;2.73;;
8252;SDS011;61313;48.396;10.008;2022-12-26T16:43:50;6.83;;;2.87;;
8252;SDS011;61313;48.396;10.008;2022-12-26T16:46:18;6.13;;;2.57;;
8252;SDS011;61313;48.396;10.008;2022-12-26T16:48:57;9.00;;;2.60;;
8252;SDS011;61313;48.396;10.008;2022-12-26T16:51:37;2.77;;;2.33;;
8252;SDS011;61313;48.396;10.008;2022-12-26T16:56:39;3.13;;;2.00;;
8252;SDS011;61313;48.396;10.008;2022-12-26T16:59:10;4.83;;;2.40;;
8252;SDS011;61313;48.396;10.008;2022-12-26T17:01:39;5.90;;;2.10;;
8252;SDS011;61313;48.396;10.008;2022-12-26T17:07:00;4.63;;;2.80;;
8252;SDS011;61313;48.396;10.008;2022-12-26T17:09:31;9.87;;;3.67;;
8252;SDS011;61313;48.396;10.008;2022-12-26T17:12:16;3.37;;;2.57;;
8252;SDS011;61313;48.396;10.008;2022-12-26T17:14:46;3.10;;;2.43;;
8252;SDS011;61313;48.396;10.008;2022-12-26T17:19:49;6.37;;;2.73;;
8252;SDS011;61313;48.396;10.008;2022-12-26T17:22:22;2.47;;;2.10;;
8252;SDS011;61313;48.396;10.008;2022-12-26T17:28:20;3.57;;;2.37;;
8252;SDS011;61313;48.396;10.008;2022-12-26T17:30:38;5.50;;;1.73;;
8252;SDS011;61313;48.396;10.008;2022-12-26T17:35:35;2.77;;;2.17;;
8252;SDS011;61313;48.396;10.008;2022-12-26T17:38:02;6.87;;;1.90;;
8252;SDS011;61313;48.396;10.008;2022-12-26T17:40:38;17.40;;;2.40;;
8252;SDS011;61313;48.396;10.008;2022-12-26T17:45:32;7.53;;;2.50;;
8252;SDS011;61313;48.396;10.008;2022-12-26T17:47:58;6.37;;;1.80;;
8252;SDS011;61313;48.396;10.008;2022-12-26T17:50:28;3.50;;;1.90;;
8252;SDS011;61313;48.396;10.008;2022-12-26T17:55:40;21.57;;;5.40;;
8252;SDS011;61313;48.396;10.008;2022-12-26T17:58:09;1.90;;;1.50;;
8252;SDS011;61313;48.396;10.008;2022-12-26T18:00:37;3.70;;;2.47;;
8252;SDS011;61313;48.396;10.008;2022-12-26T18:03:03;4.03;;;2.40;;
8252;SDS011;61313;48.396;10.008;2022-12-26T18:05:29;3.03;;;1.90;;
8252;SDS011;61313;48.396;10.008;2022-12-26T18:07:55;7.67;;;2.97;;
8252;SDS011;61313;48.396;10.008;2022-12-26T18:10:24;8.53;;;2.40;;
8252;SDS011;61313;48.396;10.008;2022-12-26T18:12:53;5.20;;;2.43;;
8252;SDS011;61313;48.396;10.008;2022-12-26T18:15:19;3.20;;;2.33;;
8252;SDS011;61313;48.396;10.008;2022-12-26T18:17:47;2.60;;;2.20;;
8252;SDS011;61313;48.396;10.008;2022-12-26T18:20:15;5.10;;;2.13;;
8252;SDS011;61313;48.396;10.008;2022-12-26T18:22:59;3.30;;;1.70;;
8252;SDS011;61313;48.396;10.008;2022-12-26T18:25:24;3.20;;;2.03;;
8252;SDS011;61313;48.396;10.008;2022-12-26T18:27:51;6.60;;;2.90;;
8252;SDS011;61313;48.396;10.008;2022-12-26T18:30:21;4.13;;;2.47;;
8252;SDS011;61313;48.396;10.008;2022-12-26T18:32:49;2.13;;;1.93;;
8252;SDS011;61313;48.396;10.008;2022-12-26T18:35:16;4.10;;;2.40;;
8252;SDS011;61313;48.396;10.008;2022-12-26T18:37:43;4.40;;;2.87;;
8252;SDS011;61313;48.396;10.008;2022-12-26T18:40:25;3.00;;;2.30;;
8252;SDS011;61313;48.396;10.008;2022-12-26T18:43:00;3.10;;;2.53;;
8252;SDS011;61313;48.396;10.008;2022-12-26T18:45:26;2.70;;;2.40;;
8252;SDS011;61313;48.396;10.008;2022-12-26T18:47:52;6.30;;;3.27;;
8252;SDS011;61313;48.396;10.008;2022-12-26T18:50:18;4.20;;;2.57;;
8252;SDS011;61313;48.396;10.008;2022-12-26T18:52:44;3.80;;;2.63;;
8252;SDS011;61313;48.396;10.008;2022-12-26T18:55:10;4.00;;;2.40;;
8252;SDS011;61313;48.396;10.008;2022-12-26T18:57:36;10.20;;;3.00;;
8252;SDS011;61313;48.396;10.008;2022-12-26T19:00:02;7.63;;;2.57;;
8252;SDS011;61313;48.396;10.008;2022-12-26T19:02:28;5.33;;;2.70;;
8252;SDS011;61313;48.396;10.008;2022-12-26T19:04:55;2.77;;;1.83;;
8252;SDS011;61313;48.396;10.008;2022-12-26T19:07:21;3.60;;;2.27;;
8252;SDS011;61313;48.396;10.008;2022-12-26T19:09:48;2.23;;;2.00;;
8252;SDS011;61313;48.396;10.008;2022-12-26T19:12:15;2.70;;;2.50;;
8252;SDS011;61313;48.396;10.008;2022-12-26T19:14:42;2.40;;;2.03;;
8252;SDS011;61313;48.396;10.008;2022-12-26T19:17:09;2.90;;;2.00;;
8252;SDS011;61313;48.396;10.008;2022-12-26T19:19:34;5.00;;;1.77;;
8252;SDS011;61313;48.396;10.008;2022-12-26T19:22:00;7.57;;;2.40;;
8252;SDS011;61313;48.396;10.008;2022-12-26T19:24:26;5.43;;;2.10;;
8252;SDS011;61313;48.396;10.008;2022-12-26T19:26:52;3.30;;;1.97;;